createdAt,value
2018-05-14T00:00:54.231Z,10.60
2018-05-14T00:03:21.787Z,10.60
2018-05-14T00:05:50.073Z,10.70
2018-05-14T00:08:18.386Z,10.60
2018-05-14T00:10:45.914Z,10.60
2018-05-14T00:13:13.480Z,10.50
2018-05-14T00:15:41.036Z,10.50
2018-05-14T00:18:08.594Z,10.50
2018-05-14T00:20:36.101Z,10.50
2018-05-14T00:23:03.680Z,10.50
2018-05-14T00:25:31.217Z,10.50
2018-05-14T00:27:58.738Z,10.50
2018-05-14T00:30:26.260Z,10.60
2018-05-14T00:32:54.568Z,10.50
2018-05-14T00:35:22.128Z,10.50
2018-05-14T00:37:49.658Z,10.50
2018-05-14T00:40:17.973Z,10.50
2018-05-14T00:42:45.513Z,10.50
2018-05-14T00:45:13.812Z,10.60
2018-05-14T00:47:41.324Z,10.60
2018-05-14T00:50:08.849Z,10.60
2018-05-14T00:52:36.356Z,10.60
2018-05-14T00:55:16.430Z,10.60
2018-05-14T00:57:43.971Z,10.50
2018-05-14T01:00:12.297Z,10.50
2018-05-14T01:02:39.793Z,10.50
2018-05-14T01:05:07.362Z,10.50
2018-05-14T01:07:35.660Z,10.40
2018-05-14T01:10:03.191Z,10.40
2018-05-14T01:12:31.489Z,10.40
2018-05-14T01:14:59.781Z,10.30
2018-05-14T01:17:27.308Z,10.30
2018-05-14T01:19:55.594Z,10.40
2018-05-14T01:22:23.861Z,10.40
2018-05-14T01:24:57.955Z,10.40
2018-05-14T01:27:25.448Z,10.40
2018-05-14T01:29:52.977Z,10.40
2018-05-14T01:32:20.522Z,10.50
2018-05-14T01:34:48.120Z,10.50
2018-05-14T01:37:16.395Z,10.60
2018-05-14T01:39:43.915Z,10.60
2018-05-14T01:42:11.424Z,10.70
2018-05-14T01:44:38.986Z,10.60
2018-05-14T01:47:06.530Z,10.60
2018-05-14T01:49:34.070Z,10.60
2018-05-14T01:52:01.592Z,10.60
2018-05-14T01:54:29.137Z,10.60
2018-05-14T01:56:56.655Z,10.50
2018-05-14T01:59:24.946Z,10.50
2018-05-14T02:01:53.229Z,10.40
2018-05-14T02:04:20.750Z,10.40
2018-05-14T02:06:48.282Z,10.30
2018-05-14T02:09:15.769Z,10.30
2018-05-14T02:11:43.276Z,10.30
2018-05-14T02:14:10.782Z,10.30
2018-05-14T02:16:38.272Z,10.30
2018-05-14T02:19:05.794Z,10.30
2018-05-14T02:21:33.385Z,10.30
2018-05-14T02:24:01.624Z,10.40
2018-05-14T02:26:29.149Z,10.40
2018-05-14T02:28:56.692Z,10.30
2018-05-14T02:31:24.961Z,10.20
2018-05-14T02:33:53.233Z,10.30
2018-05-14T02:36:20.767Z,10.30
2018-05-14T02:38:48.289Z,10.40
2018-05-14T02:41:15.811Z,10.40
2018-05-14T02:43:44.816Z,10.30
2018-05-14T02:46:13.114Z,10.30
2018-05-14T02:48:40.646Z,10.30
2018-05-14T02:51:08.908Z,10.30
2018-05-14T02:53:36.444Z,10.30
2018-05-14T02:56:03.999Z,10.30
2018-05-14T02:58:31.497Z,10.20
2018-05-14T03:00:59.793Z,10.30
2018-05-14T03:03:27.304Z,10.30
2018-05-14T03:05:54.862Z,10.30
2018-05-14T03:08:22.378Z,10.40
2018-05-14T03:10:49.926Z,10.40
2018-05-14T03:13:18.188Z,10.50
2018-05-14T03:15:46.502Z,10.40
2018-05-14T03:18:14.049Z,10.40
2018-05-14T03:20:42.309Z,10.40
2018-05-14T03:23:10.597Z,10.40
2018-05-14T03:25:39.036Z,10.40
2018-05-14T03:28:06.554Z,10.40
2018-05-14T03:30:34.059Z,10.40
2018-05-14T03:33:01.586Z,10.40
2018-05-14T03:35:29.133Z,10.30
2018-05-14T03:37:56.633Z,10.30
2018-05-14T03:40:24.131Z,10.40
2018-05-14T03:42:51.618Z,10.20
2018-05-14T03:45:19.135Z,10.20
2018-05-14T03:47:47.414Z,10.20
2018-05-14T03:50:15.697Z,10.30
2018-05-14T03:52:43.256Z,10.30
2018-05-14T03:55:10.764Z,10.30
2018-05-14T03:57:38.318Z,10.30
2018-05-14T04:00:17.774Z,10.30
2018-05-14T04:02:57.151Z,10.30
2018-05-14T04:08:23.335Z,10.40
2018-05-14T04:10:50.827Z,10.40
2018-05-14T04:13:18.351Z,10.30
2018-05-14T04:15:45.871Z,10.40
2018-05-14T04:18:13.304Z,10.30
2018-05-14T04:20:41.755Z,10.20
2018-05-14T04:23:09.279Z,10.20
2018-05-14T04:25:36.752Z,10.20
2018-05-14T04:28:04.425Z,10.20
2018-05-14T04:30:31.950Z,10.30
2018-05-14T04:32:59.512Z,10.40
2018-05-14T04:35:27.027Z,10.30
2018-05-14T04:37:54.553Z,10.30
2018-05-14T04:40:22.052Z,10.30
2018-05-14T04:42:49.574Z,10.30
2018-05-14T04:45:17.058Z,10.40
2018-05-14T04:47:44.590Z,10.40
2018-05-14T04:50:12.085Z,10.30
2018-05-14T04:52:39.643Z,10.30
2018-05-14T04:55:07.128Z,10.30
2018-05-14T04:57:35.398Z,10.30
2018-05-14T05:00:02.940Z,10.30
2018-05-14T05:02:30.469Z,10.30
2018-05-14T05:04:57.996Z,10.30
2018-05-14T05:07:25.507Z,10.40
2018-05-14T05:09:53.072Z,10.50
2018-05-14T05:12:21.363Z,10.50
2018-05-14T05:14:49.633Z,10.50
2018-05-14T05:17:17.165Z,10.50
2018-05-14T05:19:44.616Z,10.50
2018-05-14T05:22:12.106Z,10.50
2018-05-14T05:27:13.828Z,10.60
2018-05-14T05:29:41.575Z,10.70
2018-05-14T05:32:09.105Z,10.90
2018-05-14T05:34:36.959Z,11.10
2018-05-14T05:37:04.356Z,11.10
2018-05-14T05:39:32.152Z,11.20
2018-05-14T05:41:59.707Z,11.10
2018-05-14T05:44:27.975Z,11.10
2018-05-14T05:46:55.488Z,11.10
2018-05-14T05:49:22.994Z,11.00
2018-05-14T05:51:50.538Z,10.90
2018-05-14T05:54:18.077Z,11.00
2018-05-14T05:56:46.386Z,11.10
2018-05-14T05:59:13.909Z,11.10
2018-05-14T06:01:42.217Z,11.10
2018-05-14T06:04:09.791Z,11.10
2018-05-14T06:06:37.307Z,11.10
2018-05-14T06:09:05.586Z,11.20
2018-05-14T06:11:33.858Z,11.30
2018-05-14T06:14:01.438Z,11.30
2018-05-14T06:16:29.031Z,11.30
2018-05-14T06:18:56.622Z,11.30
2018-05-14T06:21:24.141Z,11.40
2018-05-14T06:23:51.695Z,11.50
2018-05-14T06:26:19.209Z,11.50
2018-05-14T06:28:46.737Z,11.50
2018-05-14T06:31:14.280Z,11.50
2018-05-14T06:33:41.795Z,11.40
2018-05-14T06:36:09.341Z,11.40
2018-05-14T06:38:36.876Z,11.50
2018-05-14T06:41:04.402Z,11.50
2018-05-14T06:43:31.923Z,11.60
2018-05-14T06:46:00.211Z,11.60
2018-05-14T06:48:28.510Z,11.60
2018-05-14T06:51:03.467Z,11.60
2018-05-14T06:53:31.060Z,11.60
2018-05-14T06:55:58.583Z,11.60
2018-05-14T06:58:27.585Z,11.60
2018-05-14T07:00:55.207Z,11.50
2018-05-14T07:03:23.519Z,11.60
2018-05-14T07:05:51.145Z,11.70
2018-05-14T07:08:18.642Z,11.70
2018-05-14T07:10:56.145Z,11.80
2018-05-14T07:13:23.661Z,11.90
2018-05-14T07:15:51.223Z,11.90
2018-05-14T07:18:18.777Z,12.00
2018-05-14T07:20:47.442Z,12.00
2018-05-14T07:23:15.796Z,11.90
2018-05-14T07:25:43.333Z,11.90
2018-05-14T07:28:10.929Z,12.00
2018-05-14T07:30:38.530Z,12.00
2018-05-14T07:33:06.056Z,12.00
2018-05-14T07:35:34.393Z,12.00
2018-05-14T07:38:01.973Z,12.00
2018-05-14T07:40:29.632Z,12.10
2018-05-14T07:42:58.429Z,12.10
2018-05-14T07:45:26.024Z,12.00
2018-05-14T07:47:53.604Z,12.10
2018-05-14T07:50:21.929Z,12.10
2018-05-14T07:52:49.603Z,12.00
2018-05-14T07:55:17.121Z,12.10
2018-05-14T07:57:44.709Z,12.10
2018-05-14T08:00:13.369Z,12.20
2018-05-14T08:02:41.237Z,12.10
2018-05-14T08:05:21.497Z,12.20
2018-05-14T08:07:49.047Z,12.20
2018-05-14T08:10:19.189Z,12.10
2018-05-14T08:12:50.945Z,12.10
2018-05-14T08:15:44.769Z,12.10
2018-05-14T08:26:31.358Z,12.20
2018-05-14T08:29:03.465Z,12.20
2018-05-14T08:31:31.031Z,12.20
2018-05-14T08:34:00.458Z,12.20
2018-05-14T08:36:28.886Z,12.20
2018-05-14T08:38:57.281Z,12.20
2018-05-14T08:41:24.770Z,12.20
2018-05-14T08:43:53.073Z,12.20
2018-05-14T08:46:20.620Z,12.20
2018-05-14T08:48:48.953Z,12.10
2018-05-14T08:51:16.484Z,12.20
2018-05-14T08:53:44.514Z,12.30
2018-05-14T08:56:31.939Z,12.20
2018-05-14T08:59:00.230Z,12.30
2018-05-14T09:10:19.455Z,12.40
2018-05-14T09:12:46.901Z,12.40
2018-05-14T09:15:15.204Z,12.60
2018-05-14T09:17:42.778Z,12.50
2018-05-14T09:20:10.355Z,12.60
2018-05-14T09:22:37.849Z,12.50
2018-05-14T09:25:05.355Z,12.50
2018-05-14T09:27:32.860Z,12.60
2018-05-14T09:30:00.460Z,12.70
2018-05-14T09:32:27.863Z,12.80
2018-05-14T09:34:55.417Z,12.70
2018-05-14T09:37:22.921Z,12.70
2018-05-14T09:39:50.437Z,12.80
2018-05-14T09:42:17.957Z,12.90
2018-05-14T09:44:45.461Z,12.90
2018-05-14T09:47:12.977Z,12.90
2018-05-14T09:49:40.507Z,13.10
2018-05-14T09:52:08.041Z,13.20
2018-05-14T09:57:41.408Z,13.30
2018-05-14T10:03:04.477Z,13.30
2018-05-14T10:05:31.990Z,13.40
2018-05-14T10:08:00.269Z,13.30
2018-05-14T10:10:27.870Z,13.30
2018-05-14T10:12:55.451Z,13.40
2018-05-14T10:15:23.765Z,13.40
2018-05-14T10:18:09.978Z,13.40
2018-05-14T10:45:10.616Z,13.90
2018-05-14T10:47:38.147Z,13.80
2018-05-14T10:50:06.406Z,14.00
2018-05-14T10:55:17.930Z,14.00
2018-05-14T10:57:46.275Z,13.90
2018-05-14T11:00:13.779Z,13.90
2018-05-14T11:02:42.250Z,13.90
2018-05-14T11:05:22.596Z,13.80
2018-05-14T11:07:50.851Z,13.90
2018-05-14T11:10:18.338Z,13.90
2018-05-14T11:12:46.596Z,14.10
2018-05-14T11:15:15.481Z,14.00
2018-05-14T11:17:43.810Z,14.20
2018-05-14T11:20:11.418Z,14.20
2018-05-14T11:22:51.350Z,14.20
2018-05-14T11:25:18.799Z,14.20
2018-05-14T11:27:48.376Z,14.30
2018-05-14T11:30:15.989Z,14.30
2018-05-14T11:32:43.473Z,14.40
2018-05-14T11:35:11.683Z,14.30
2018-05-14T11:37:39.257Z,14.30
2018-05-14T11:40:06.718Z,14.40
2018-05-14T11:42:34.215Z,14.40
2018-05-14T11:45:04.669Z,14.40
2018-05-14T11:47:32.209Z,14.40
2018-05-14T11:50:00.539Z,14.40
2018-05-14T11:52:28.040Z,14.40
2018-05-14T11:54:55.557Z,14.40
2018-05-14T11:57:23.089Z,14.40
2018-05-14T11:59:50.606Z,14.50
2018-05-14T12:02:18.145Z,14.50
2018-05-14T12:04:45.697Z,14.50
2018-05-14T12:07:13.233Z,14.50
2018-05-14T12:09:41.331Z,14.50
2018-05-14T12:12:08.963Z,14.50
2018-05-14T12:14:36.451Z,14.50
2018-05-14T12:17:04.006Z,14.50
2018-05-14T12:19:32.437Z,14.50
2018-05-14T12:22:05.028Z,14.50
2018-05-14T12:24:32.587Z,14.50
2018-05-14T12:27:28.482Z,14.40
2018-05-14T12:29:56.782Z,14.40
2018-05-14T12:32:43.107Z,14.40
2018-05-14T12:35:14.312Z,14.30
2018-05-14T12:37:42.664Z,14.40
2018-05-14T12:40:10.209Z,14.30
2018-05-14T12:42:50.016Z,14.40
2018-05-14T12:45:25.090Z,14.40
2018-05-14T12:47:56.923Z,14.50
2018-05-14T12:50:27.892Z,14.60
2018-05-14T12:53:07.628Z,14.60
2018-05-14T12:56:13.788Z,14.40
2018-05-14T12:58:42.045Z,14.20
2018-05-14T13:01:09.701Z,14.10
2018-05-14T13:03:37.606Z,14.30
2018-05-14T13:06:05.620Z,14.40
2018-05-14T13:11:17.414Z,14.40
2018-05-14T13:13:45.840Z,14.30
2018-05-14T13:16:13.353Z,14.30
2018-05-14T13:18:42.983Z,14.30
2018-05-14T13:21:10.531Z,14.30
2018-05-14T13:23:38.045Z,14.20
2018-05-14T13:26:06.306Z,14.20
2018-05-14T13:28:33.776Z,14.20
2018-05-14T13:31:02.064Z,14.40
2018-05-14T13:33:30.389Z,14.40
2018-05-14T13:35:57.864Z,14.40
2018-05-14T13:38:25.372Z,14.30
2018-05-14T13:40:52.893Z,14.30
2018-05-14T13:43:20.594Z,14.30
2018-05-14T13:45:49.311Z,14.10
2018-05-14T13:48:16.917Z,14.10
2018-05-14T13:50:45.577Z,14.00
2018-05-14T13:53:13.161Z,14.00
2018-05-14T13:55:40.752Z,14.10
2018-05-14T13:58:08.300Z,14.00
2018-05-14T14:00:36.611Z,14.10
2018-05-14T14:03:14.081Z,14.00
2018-05-14T14:05:41.613Z,14.10
2018-05-14T14:18:16.980Z,14.20
2018-05-14T14:29:50.535Z,14.30
2018-05-14T15:05:44.828Z,14.30
2018-05-14T15:08:12.346Z,13.80
2018-05-14T15:10:39.861Z,13.80
2018-05-14T15:13:08.124Z,13.70
2018-05-14T15:15:35.641Z,13.70
2018-05-14T15:18:21.134Z,13.80
2018-05-14T15:21:09.856Z,13.70
2018-05-14T15:23:37.407Z,13.70
2018-05-14T15:26:04.929Z,13.70
2018-05-14T15:28:37.388Z,13.80
2018-05-14T15:31:19.671Z,13.70
2018-05-14T15:33:47.317Z,13.80
2018-05-14T15:36:38.017Z,13.70
2018-05-14T15:39:05.540Z,13.70
2018-05-14T15:41:38.088Z,13.70
2018-05-14T15:44:20.461Z,13.70
2018-05-14T15:46:47.961Z,13.70
2018-05-14T15:49:15.453Z,13.80
2018-05-14T15:51:42.909Z,13.80
2018-05-14T15:54:11.149Z,13.80
2018-05-14T15:56:38.625Z,13.80
2018-05-14T15:59:06.108Z,13.80
2018-05-14T16:01:34.325Z,13.70
2018-05-14T16:04:01.905Z,13.70
2018-05-14T16:06:29.391Z,13.80
2018-05-14T16:09:07.835Z,13.80
2018-05-14T16:11:35.294Z,13.90
2018-05-14T16:14:06.831Z,13.90
2018-05-14T16:16:35.076Z,13.80
2018-05-14T16:19:02.753Z,13.80
2018-05-14T16:21:30.268Z,13.90
2018-05-14T16:23:57.769Z,13.90
2018-05-14T16:26:26.000Z,14.00
2018-05-14T16:28:53.586Z,14.00
2018-05-14T16:31:21.108Z,13.90
2018-05-14T16:33:48.689Z,14.00
2018-05-14T16:36:16.204Z,13.90
2018-05-14T16:38:43.732Z,13.90
2018-05-14T16:41:11.233Z,13.90
2018-05-14T16:43:38.883Z,14.00
2018-05-14T16:46:07.137Z,13.90
2018-05-14T16:48:34.632Z,13.90
2018-05-14T16:51:02.148Z,13.90
2018-05-14T16:53:29.676Z,13.90
2018-05-14T16:55:57.322Z,13.90
2018-05-14T16:58:24.845Z,13.90
2018-05-14T17:00:52.408Z,13.80
2018-05-14T17:03:20.713Z,13.70
2018-05-14T17:05:48.331Z,13.70
2018-05-14T17:08:16.632Z,13.70
2018-05-14T17:10:44.157Z,13.70
2018-05-14T17:13:11.671Z,13.60
2018-05-14T17:15:39.188Z,13.60
2018-05-14T17:18:07.469Z,13.70
2018-05-14T17:20:35.012Z,13.70
2018-05-14T17:23:02.526Z,13.60
2018-05-14T17:25:30.065Z,13.60
2018-05-14T17:27:57.929Z,13.60
2018-05-14T17:30:26.229Z,13.60
2018-05-14T17:32:53.760Z,13.60
2018-05-14T17:35:21.306Z,13.70
2018-05-14T17:37:50.240Z,13.60
2018-05-14T17:40:17.805Z,13.60
2018-05-14T17:42:45.369Z,13.70
2018-05-14T17:45:12.919Z,13.60
2018-05-14T17:47:40.490Z,13.60
2018-05-14T17:50:08.020Z,13.70
2018-05-14T17:52:36.340Z,13.60
2018-05-14T17:55:03.878Z,13.60
2018-05-14T17:57:31.453Z,13.70
2018-05-14T17:59:58.974Z,13.70
2018-05-14T18:02:27.245Z,13.70
2018-05-14T18:04:54.767Z,13.70
2018-05-14T18:07:22.299Z,13.70
2018-05-14T18:09:49.850Z,13.70
2018-05-14T18:12:17.389Z,13.60
2018-05-14T18:14:44.925Z,13.60
2018-05-14T18:17:12.442Z,13.60
2018-05-14T18:19:45.755Z,13.50
2018-05-14T18:25:14.160Z,13.50
2018-05-14T18:27:47.525Z,13.50
2018-05-14T18:30:15.045Z,13.50
2018-05-14T18:32:48.399Z,13.60
2018-05-14T18:35:20.811Z,13.50
2018-05-14T18:37:49.143Z,13.30
2018-05-14T18:40:16.620Z,13.30
2018-05-14T18:42:44.124Z,13.30
2018-05-14T18:45:12.391Z,13.40
2018-05-14T18:47:39.901Z,13.30
2018-05-14T18:50:07.577Z,13.30
2018-05-14T18:52:35.178Z,13.20
2018-05-14T18:55:02.742Z,13.10
2018-05-14T18:57:30.271Z,13.00
2018-05-14T18:59:58.528Z,13.00
2018-05-14T19:02:26.050Z,13.00
2018-05-14T19:04:53.541Z,13.00
2018-05-14T19:07:21.065Z,13.00
2018-05-14T19:09:48.754Z,13.00
2018-05-14T19:12:16.295Z,12.90
2018-05-14T19:17:48.909Z,12.90
2018-05-14T19:20:16.437Z,12.80
2018-05-14T19:22:49.685Z,12.80
2018-05-14T19:25:17.221Z,12.90
2018-05-14T19:27:50.621Z,12.80
2018-05-14T19:30:18.188Z,12.80
2018-05-14T19:32:45.764Z,12.80
2018-05-14T19:35:19.030Z,12.90
2018-05-14T19:37:46.633Z,12.90
2018-05-14T19:40:20.666Z,12.90
2018-05-14T19:42:48.172Z,12.90
2018-05-14T19:45:15.647Z,13.00
2018-05-14T19:47:43.183Z,13.00
2018-05-14T19:50:10.719Z,13.00
2018-05-14T19:52:38.204Z,13.10
2018-05-14T19:55:05.683Z,13.00
2018-05-14T19:57:33.193Z,13.00
2018-05-14T20:00:00.707Z,13.00
2018-05-14T20:02:28.188Z,13.00
2018-05-14T20:04:56.435Z,13.00
2018-05-14T20:07:23.969Z,13.00
2018-05-14T20:09:51.504Z,13.00
2018-05-14T20:12:19.058Z,13.10
2018-05-14T20:14:46.605Z,13.10
2018-05-14T20:17:14.229Z,13.00
2018-05-14T20:19:41.733Z,13.10
2018-05-14T20:22:09.242Z,13.20
2018-05-14T20:24:36.752Z,13.20
2018-05-14T20:27:04.249Z,13.10
2018-05-14T20:29:31.752Z,13.10
2018-05-14T20:31:59.273Z,13.10
2018-05-14T20:34:26.765Z,13.10
2018-05-14T20:36:55.037Z,13.10
2018-05-14T20:39:23.303Z,13.10
2018-05-14T20:41:51.601Z,13.10
2018-05-14T20:44:19.867Z,13.10
2018-05-14T20:46:48.148Z,13.00
2018-05-14T20:49:16.456Z,12.90
2018-05-14T20:51:43.932Z,12.90
2018-05-14T20:54:11.442Z,12.90
2018-05-14T20:56:39.709Z,12.90
2018-05-14T20:59:07.984Z,12.90
2018-05-14T21:01:36.246Z,12.90
2018-05-14T21:04:03.745Z,12.90
2018-05-14T21:06:31.268Z,12.90
2018-05-14T21:08:58.757Z,13.00
2018-05-14T21:11:26.229Z,13.10
2018-05-14T21:13:53.748Z,13.20
2018-05-14T21:16:22.009Z,13.10
2018-05-14T21:18:49.492Z,13.10
2018-05-14T21:21:17.712Z,12.90
2018-05-14T21:23:45.232Z,12.90
2018-05-14T21:26:13.485Z,12.90
2018-05-14T21:28:41.007Z,12.90
2018-05-14T21:31:08.582Z,12.90
2018-05-14T21:33:36.078Z,12.90
2018-05-14T21:36:03.474Z,12.80
2018-05-14T21:38:30.981Z,12.80
2018-05-14T21:40:58.458Z,12.80
2018-05-14T21:43:26.728Z,12.90
2018-05-14T21:45:54.982Z,12.90
2018-05-14T21:48:22.457Z,12.80
2018-05-14T21:50:50.713Z,12.80
2018-05-14T21:53:18.180Z,12.80
2018-05-14T21:55:45.676Z,12.80
2018-05-14T21:58:13.155Z,12.70
2018-05-14T22:00:40.653Z,12.70
2018-05-14T22:03:08.127Z,12.80
2018-05-14T22:05:47.204Z,12.80
2018-05-14T22:08:14.676Z,12.80
2018-05-14T22:10:42.157Z,12.80
2018-05-14T22:13:09.621Z,12.90
2018-05-14T22:15:37.120Z,13.00
2018-05-14T22:18:04.597Z,13.00
2018-05-14T22:20:32.103Z,12.90
2018-05-14T22:23:00.333Z,12.90
2018-05-14T22:25:27.833Z,12.90
2018-05-14T22:27:55.334Z,12.90
2018-05-14T22:30:22.940Z,13.00
2018-05-14T22:32:50.427Z,13.00
2018-05-14T22:35:17.929Z,12.90
2018-05-14T22:37:45.421Z,12.90
2018-05-14T22:40:12.920Z,12.90
2018-05-14T22:42:40.437Z,12.80
2018-05-14T22:45:07.947Z,12.80
2018-05-14T22:47:35.467Z,12.80
2018-05-14T22:50:03.753Z,13.00
2018-05-14T22:52:31.269Z,13.00
2018-05-14T22:54:58.756Z,13.00
2018-05-14T22:57:27.036Z,12.90
2018-05-14T22:59:55.313Z,12.90
2018-05-14T23:02:23.575Z,12.90
2018-05-14T23:04:51.096Z,12.80
2018-05-14T23:07:18.624Z,12.90
2018-05-14T23:09:46.160Z,12.90
2018-05-14T23:12:14.405Z,12.80
2018-05-14T23:14:41.893Z,12.70
2018-05-14T23:17:09.392Z,12.90
2018-05-14T23:19:36.893Z,12.90
2018-05-14T23:22:04.447Z,12.80
2018-05-14T23:24:31.915Z,12.90
2018-05-14T23:26:59.397Z,12.80
2018-05-14T23:29:27.651Z,12.90
2018-05-14T23:31:55.940Z,13.00
2018-05-14T23:34:24.209Z,13.00
2018-05-14T23:36:52.486Z,12.90
2018-05-14T23:39:19.969Z,12.90
2018-05-14T23:41:47.506Z,13.00
2018-05-14T23:44:15.777Z,12.90
2018-05-14T23:46:43.251Z,12.90
2018-05-14T23:49:11.522Z,13.00
2018-05-14T23:51:39.777Z,13.00
2018-05-14T23:54:07.257Z,13.00
2018-05-14T23:56:35.507Z,13.00
2018-05-14T23:59:03.002Z,13.00
